sensor_id;sensor_type;location;lat;lon;timestamp;temperature;humidity
1361;DHT22;674;45.552;-122.600;2024-03-23T00:52:13;12.80;81.90
1361;DHT22;674;45.552;-122.600;2024-03-23T00:54:39;12.80;95.30
1361;DHT22;674;45.552;-122.600;2024-03-23T00:57:06;12.70;98.60
1361;DHT22;674;45.552;-122.600;2024-03-23T00:59:32;12.60;99.90
1361;DHT22;674;45.552;-122.600;2024-03-23T01:01:59;12.60;99.90
1361;DHT22;674;45.552;-122.600;2024-03-23T01:04:26;12.60;99.90
1361;DHT22;674;45.552;-122.600;2024-03-23T01:06:52;12.60;99.90
1361;DHT22;674;45.552;-122.600;2024-03-23T01:09:19;12.80;99.90
1361;DHT22;674;45.552;-122.600;2024-03-23T01:11:45;12.60;99.90
1361;DHT22;674;45.552;-122.600;2024-03-23T01:14:12;12.60;99.90
1361;DHT22;674;45.552;-122.600;2024-03-23T01:16:39;12.70;99.90
1361;DHT22;674;45.552;-122.600;2024-03-23T01:19:05;12.70;99.90
1361;DHT22;674;45.552;-122.600;2024-03-23T01:21:32;12.70;99.90
1361;DHT22;674;45.552;-122.600;2024-03-23T01:23:59;12.70;99.90
1361;DHT22;674;45.552;-122.600;2024-03-23T01:26:25;12.70;99.90
1361;DHT22;674;45.552;-122.600;2024-03-23T01:28:52;12.70;99.90
1361;DHT22;674;45.552;-122.600;2024-03-23T01:31:19;12.80;99.90
1361;DHT22;674;45.552;-122.600;2024-03-23T01:33:45;12.80;99.90
1361;DHT22;674;45.552;-122.600;2024-03-23T01:36:12;12.80;99.90
1361;DHT22;674;45.552;-122.600;2024-03-23T01:38:39;12.80;99.90
1361;DHT22;674;45.552;-122.600;2024-03-23T01:41:05;12.70;99.90
1361;DHT22;674;45.552;-122.600;2024-03-23T01:43:32;12.70;99.90
1361;DHT22;674;45.552;-122.600;2024-03-23T01:45:58;12.60;99.90
1361;DHT22;674;45.552;-122.600;2024-03-23T01:48:25;12.60;99.90
1361;DHT22;674;45.552;-122.600;2024-03-23T01:50:52;12.60;99.90
1361;DHT22;674;45.552;-122.600;2024-03-23T01:53:19;12.60;99.90
1361;DHT22;674;45.552;-122.600;2024-03-23T01:55:47;12.60;99.90
1361;DHT22;674;45.552;-122.600;2024-03-23T01:58:14;12.60;99.90
1361;DHT22;674;45.552;-122.600;2024-03-23T02:00:41;12.50;99.90
1361;DHT22;674;45.552;-122.600;2024-03-23T02:03:41;12.50;99.90
1361;DHT22;674;45.552;-122.600;2024-03-23T02:12:27;12.30;99.90
1361;DHT22;674;45.552;-122.600;2024-03-23T02:14:53;12.20;99.90
1361;DHT22;674;45.552;-122.600;2024-03-23T02:17:20;12.20;99.90
1361;DHT22;674;45.552;-122.600;2024-03-23T02:19:47;12.20;99.90
1361;DHT22;674;45.552;-122.600;2024-03-23T02:22:13;12.20;99.90
1361;DHT22;674;45.552;-122.600;2024-03-23T02:24:42;12.20;99.90
1361;DHT22;674;45.552;-122.600;2024-03-23T02:27:08;12.10;99.90
1361;DHT22;674;45.552;-122.600;2024-03-23T02:29:35;12.10;99.90
1361;DHT22;674;45.552;-122.600;2024-03-23T02:32:02;12.10;99.90
1361;DHT22;674;45.552;-122.600;2024-03-23T02:34:28;12.10;99.90
1361;DHT22;674;45.552;-122.600;2024-03-23T02:36:55;12.00;99.90
1361;DHT22;674;45.552;-122.600;2024-03-23T02:39:22;12.00;99.90
1361;DHT22;674;45.552;-122.600;2024-03-23T02:42:13;12.00;99.90
1361;DHT22;674;45.552;-122.600;2024-03-23T02:44:40;12.00;99.90
1361;DHT22;674;45.552;-122.600;2024-03-23T02:47:07;12.00;99.90
1361;DHT22;674;45.552;-122.600;2024-03-23T02:49:33;11.90;99.90
1361;DHT22;674;45.552;-122.600;2024-03-23T02:52:00;12.00;99.90
1361;DHT22;674;45.552;-122.600;2024-03-23T02:54:27;11.90;99.90
1361;DHT22;674;45.552;-122.600;2024-03-23T02:56:53;11.90;99.90
1361;DHT22;674;45.552;-122.600;2024-03-23T02:59:20;11.80;99.90
1361;DHT22;674;45.552;-122.600;2024-03-23T03:01:46;11.80;99.90
1361;DHT22;674;45.552;-122.600;2024-03-23T03:04:13;11.80;99.90
1361;DHT22;674;45.552;-122.600;2024-03-23T03:06:39;11.70;99.90
1361;DHT22;674;45.552;-122.600;2024-03-23T03:09:07;11.80;99.90
1361;DHT22;674;45.552;-122.600;2024-03-23T03:11:34;11.70;99.90
1361;DHT22;674;45.552;-122.600;2024-03-23T03:14:00;11.70;99.90
1361;DHT22;674;45.552;-122.600;2024-03-23T03:16:27;11.70;99.90
1361;DHT22;674;45.552;-122.600;2024-03-23T03:18:54;11.70;99.90
1361;DHT22;674;45.552;-122.600;2024-03-23T03:21:21;11.70;99.90
1361;DHT22;674;45.552;-122.600;2024-03-23T03:23:48;11.70;99.90
1361;DHT22;674;45.552;-122.600;2024-03-23T03:26:16;11.60;99.90
1361;DHT22;674;45.552;-122.600;2024-03-23T03:28:43;11.70;99.90
1361;DHT22;674;45.552;-122.600;2024-03-23T03:31:15;11.60;99.90
1361;DHT22;674;45.552;-122.600;2024-03-23T03:33:42;11.60;99.90
1361;DHT22;674;45.552;-122.600;2024-03-23T03:36:09;11.60;99.90
1361;DHT22;674;45.552;-122.600;2024-03-23T03:38:36;11.60;99.90
1361;DHT22;674;45.552;-122.600;2024-03-23T03:41:03;11.60;99.90
1361;DHT22;674;45.552;-122.600;2024-03-23T03:43:29;11.60;99.90
1361;DHT22;674;45.552;-122.600;2024-03-23T03:45:56;11.60;99.90
1361;DHT22;674;45.552;-122.600;2024-03-23T03:48:23;11.50;99.90
1361;DHT22;674;45.552;-122.600;2024-03-23T03:50:50;11.40;99.90
1361;DHT22;674;45.552;-122.600;2024-03-23T03:53:17;11.40;99.90
1361;DHT22;674;45.552;-122.600;2024-03-23T03:55:43;11.40;99.90
1361;DHT22;674;45.552;-122.600;2024-03-23T03:58:10;11.40;99.90
1361;DHT22;674;45.552;-122.600;2024-03-23T04:00:37;11.30;99.90
1361;DHT22;674;45.552;-122.600;2024-03-23T04:03:03;11.30;99.90
1361;DHT22;674;45.552;-122.600;2024-03-23T04:05:30;11.30;99.90
1361;DHT22;674;45.552;-122.600;2024-03-23T04:07:56;11.30;99.90
1361;DHT22;674;45.552;-122.600;2024-03-23T04:10:23;11.30;99.90
1361;DHT22;674;45.552;-122.600;2024-03-23T04:12:51;11.20;99.90
1361;DHT22;674;45.552;-122.600;2024-03-23T04:15:17;11.10;99.90
1361;DHT22;674;45.552;-122.600;2024-03-23T04:17:44;11.10;99.90
1361;DHT22;674;45.552;-122.600;2024-03-23T04:20:10;11.00;99.90
1361;DHT22;674;45.552;-122.600;2024-03-23T04:22:39;11.00;99.90
1361;DHT22;674;45.552;-122.600;2024-03-23T04:25:06;10.90;99.90
1361;DHT22;674;45.552;-122.600;2024-03-23T04:27:33;10.80;99.90
1361;DHT22;674;45.552;-122.600;2024-03-23T04:29:59;10.70;99.90
1361;DHT22;674;45.552;-122.600;2024-03-23T04:32:27;10.60;99.90
1361;DHT22;674;45.552;-122.600;2024-03-23T04:34:54;10.50;99.90
1361;DHT22;674;45.552;-122.600;2024-03-23T04:37:20;10.50;99.90
1361;DHT22;674;45.552;-122.600;2024-03-23T04:39:47;10.50;99.90
1361;DHT22;674;45.552;-122.600;2024-03-23T04:42:15;10.50;99.90
1361;DHT22;674;45.552;-122.600;2024-03-23T04:44:43;10.50;99.90
1361;DHT22;674;45.552;-122.600;2024-03-23T04:47:11;10.50;99.90
1361;DHT22;674;45.552;-122.600;2024-03-23T04:49:37;10.50;99.90
1361;DHT22;674;45.552;-122.600;2024-03-23T04:52:04;10.50;99.90
1361;DHT22;674;45.552;-122.600;2024-03-23T04:54:31;10.40;99.90
1361;DHT22;674;45.552;-122.600;2024-03-23T04:57:00;10.30;99.90
1361;DHT22;674;45.552;-122.600;2024-03-23T04:59:27;10.30;99.90
1361;DHT22;674;45.552;-122.600;2024-03-23T05:01:53;10.30;99.90
1361;DHT22;674;45.552;-122.600;2024-03-23T05:04:20;10.20;99.90
1361;DHT22;674;45.552;-122.600;2024-03-23T05:06:46;10.10;99.90
1361;DHT22;674;45.552;-122.600;2024-03-23T05:09:13;10.10;99.90
1361;DHT22;674;45.552;-122.600;2024-03-23T05:11:40;10.00;99.90
1361;DHT22;674;45.552;-122.600;2024-03-23T05:14:07;9.90;99.90
1361;DHT22;674;45.552;-122.600;2024-03-23T05:16:34;9.80;99.90
1361;DHT22;674;45.552;-122.600;2024-03-23T05:19:01;9.70;99.90
1361;DHT22;674;45.552;-122.600;2024-03-23T05:21:27;9.50;99.90
1361;DHT22;674;45.552;-122.600;2024-03-23T05:23:56;9.50;99.90
1361;DHT22;674;45.552;-122.600;2024-03-23T05:26:23;9.40;99.90
1361;DHT22;674;45.552;-122.600;2024-03-23T05:28:50;9.30;99.90
1361;DHT22;674;45.552;-122.600;2024-03-23T05:31:26;9.20;99.90
1361;DHT22;674;45.552;-122.600;2024-03-23T05:33:53;9.30;99.90
1361;DHT22;674;45.552;-122.600;2024-03-23T05:36:20;9.30;99.90
1361;DHT22;674;45.552;-122.600;2024-03-23T05:38:47;9.30;99.90
1361;DHT22;674;45.552;-122.600;2024-03-23T05:41:14;9.30;99.90
1361;DHT22;674;45.552;-122.600;2024-03-23T05:43:41;9.30;99.90
1361;DHT22;674;45.552;-122.600;2024-03-23T05:46:08;9.20;99.90
1361;DHT22;674;45.552;-122.600;2024-03-23T05:48:35;9.20;99.90
1361;DHT22;674;45.552;-122.600;2024-03-23T05:51:01;9.30;99.90
1361;DHT22;674;45.552;-122.600;2024-03-23T05:53:28;9.40;99.90
1361;DHT22;674;45.552;-122.600;2024-03-23T05:56:03;9.40;99.90
1361;DHT22;674;45.552;-122.600;2024-03-23T05:58:30;9.40;99.90
1361;DHT22;674;45.552;-122.600;2024-03-23T06:00:57;9.50;99.90
1361;DHT22;674;45.552;-122.600;2024-03-23T06:03:25;9.50;99.90
1361;DHT22;674;45.552;-122.600;2024-03-23T06:05:52;9.70;99.90
1361;DHT22;674;45.552;-122.600;2024-03-23T06:08:22;10.00;99.90
1361;DHT22;674;45.552;-122.600;2024-03-23T06:10:50;9.70;99.90
1361;DHT22;674;45.552;-122.600;2024-03-23T06:13:17;9.80;99.90
1361;DHT22;674;45.552;-122.600;2024-03-23T06:15:44;9.80;99.90
1361;DHT22;674;45.552;-122.600;2024-03-23T06:18:12;9.90;99.90
1361;DHT22;674;45.552;-122.600;2024-03-23T06:20:39;10.00;99.90
1361;DHT22;674;45.552;-122.600;2024-03-23T06:23:05;10.20;99.90
1361;DHT22;674;45.552;-122.600;2024-03-23T06:25:32;10.00;99.90
1361;DHT22;674;45.552;-122.600;2024-03-23T06:27:59;9.90;99.90
1361;DHT22;674;45.552;-122.600;2024-03-23T06:30:27;9.90;99.90
1361;DHT22;674;45.552;-122.600;2024-03-23T06:32:55;9.80;99.90
1361;DHT22;674;45.552;-122.600;2024-03-23T06:35:22;9.80;99.90
1361;DHT22;674;45.552;-122.600;2024-03-23T06:37:48;9.70;99.90
1361;DHT22;674;45.552;-122.600;2024-03-23T06:40:15;9.80;99.90
1361;DHT22;674;45.552;-122.600;2024-03-23T06:42:41;9.80;99.90
1361;DHT22;674;45.552;-122.600;2024-03-23T06:45:08;9.80;99.90
1361;DHT22;674;45.552;-122.600;2024-03-23T06:47:35;9.80;99.90
1361;DHT22;674;45.552;-122.600;2024-03-23T06:50:02;9.70;99.90
1361;DHT22;674;45.552;-122.600;2024-03-23T06:52:29;9.60;99.90
1361;DHT22;674;45.552;-122.600;2024-03-23T06:54:57;9.60;99.90
1361;DHT22;674;45.552;-122.600;2024-03-23T06:57:24;9.50;99.90
1361;DHT22;674;45.552;-122.600;2024-03-23T06:59:50;9.50;99.90
1361;DHT22;674;45.552;-122.600;2024-03-23T07:02:17;9.50;99.90
1361;DHT22;674;45.552;-122.600;2024-03-23T07:04:44;9.50;99.90
1361;DHT22;674;45.552;-122.600;2024-03-23T07:07:10;9.50;99.90
1361;DHT22;674;45.552;-122.600;2024-03-23T07:09:37;9.40;99.90
1361;DHT22;674;45.552;-122.600;2024-03-23T07:12:04;9.30;99.90
1361;DHT22;674;45.552;-122.600;2024-03-23T07:14:31;9.70;99.90
1361;DHT22;674;45.552;-122.600;2024-03-23T07:16:57;9.40;99.90
1361;DHT22;674;45.552;-122.600;2024-03-23T07:19:24;9.30;99.90
1361;DHT22;674;45.552;-122.600;2024-03-23T07:21:51;9.30;99.90
1361;DHT22;674;45.552;-122.600;2024-03-23T07:24:17;9.40;99.90
1361;DHT22;674;45.552;-122.600;2024-03-23T07:26:44;9.40;99.90
1361;DHT22;674;45.552;-122.600;2024-03-23T07:29:11;9.40;99.90
1361;DHT22;674;45.552;-122.600;2024-03-23T07:31:37;9.40;99.90
1361;DHT22;674;45.552;-122.600;2024-03-23T07:34:04;9.40;99.90
1361;DHT22;674;45.552;-122.600;2024-03-23T07:36:31;9.40;99.90
1361;DHT22;674;45.552;-122.600;2024-03-23T07:38:58;9.40;99.90
1361;DHT22;674;45.552;-122.600;2024-03-23T07:41:25;9.50;99.90
1361;DHT22;674;45.552;-122.600;2024-03-23T07:43:53;9.50;99.90
1361;DHT22;674;45.552;-122.600;2024-03-23T07:46:20;9.50;99.90
1361;DHT22;674;45.552;-122.600;2024-03-23T07:48:47;9.60;99.90
1361;DHT22;674;45.552;-122.600;2024-03-23T07:51:20;9.60;99.90
1361;DHT22;674;45.552;-122.600;2024-03-23T07:53:47;9.70;99.90
1361;DHT22;674;45.552;-122.600;2024-03-23T07:56:15;9.70;99.90
1361;DHT22;674;45.552;-122.600;2024-03-23T07:58:42;9.70;99.90
1361;DHT22;674;45.552;-122.600;2024-03-23T08:01:10;9.80;99.90
1361;DHT22;674;45.552;-122.600;2024-03-23T08:03:37;9.80;99.90
1361;DHT22;674;45.552;-122.600;2024-03-23T08:06:13;9.70;99.90
1361;DHT22;674;45.552;-122.600;2024-03-23T08:08:41;9.70;99.90
1361;DHT22;674;45.552;-122.600;2024-03-23T08:11:07;9.70;99.90
1361;DHT22;674;45.552;-122.600;2024-03-23T08:13:34;9.70;99.90
1361;DHT22;674;45.552;-122.600;2024-03-23T08:16:01;9.80;99.90
1361;DHT22;674;45.552;-122.600;2024-03-23T08:18:29;10.10;99.90
1361;DHT22;674;45.552;-122.600;2024-03-23T08:20:58;9.80;99.90
1361;DHT22;674;45.552;-122.600;2024-03-23T08:23:26;9.80;99.90
1361;DHT22;674;45.552;-122.600;2024-03-23T08:26:09;9.80;99.90
1361;DHT22;674;45.552;-122.600;2024-03-23T08:28:36;10.00;99.90
1361;DHT22;674;45.552;-122.600;2024-03-23T08:31:07;9.80;99.90
1361;DHT22;674;45.552;-122.600;2024-03-23T08:33:34;9.80;99.90
1361;DHT22;674;45.552;-122.600;2024-03-23T08:36:02;9.80;99.90
1361;DHT22;674;45.552;-122.600;2024-03-23T08:38:29;9.80;99.90
1361;DHT22;674;45.552;-122.600;2024-03-23T08:43:32;9.80;99.90
1361;DHT22;674;45.552;-122.600;2024-03-23T08:46:03;10.00;99.90
1361;DHT22;674;45.552;-122.600;2024-03-23T08:48:30;9.80;99.90
1361;DHT22;674;45.552;-122.600;2024-03-23T08:51:01;9.70;99.90
1361;DHT22;674;45.552;-122.600;2024-03-23T08:53:28;9.80;99.90
1361;DHT22;674;45.552;-122.600;2024-03-23T08:55:56;9.80;99.90
1361;DHT22;674;45.552;-122.600;2024-03-23T08:58:23;9.70;99.90
1361;DHT22;674;45.552;-122.600;2024-03-23T09:00:53;9.60;99.90
1361;DHT22;674;45.552;-122.600;2024-03-23T09:03:25;9.60;99.90
1361;DHT22;674;45.552;-122.600;2024-03-23T09:05:52;9.60;99.90
1361;DHT22;674;45.552;-122.600;2024-03-23T09:08:21;9.60;99.90
1361;DHT22;674;45.552;-122.600;2024-03-23T09:10:47;9.60;99.90
1361;DHT22;674;45.552;-122.600;2024-03-23T09:13:14;9.70;99.90
1361;DHT22;674;45.552;-122.600;2024-03-23T09:15:46;9.80;99.90
1361;DHT22;674;45.552;-122.600;2024-03-23T09:18:13;9.80;99.90
1361;DHT22;674;45.552;-122.600;2024-03-23T09:20:39;9.80;99.90
1361;DHT22;674;45.552;-122.600;2024-03-23T09:23:06;9.80;99.90
1361;DHT22;674;45.552;-122.600;2024-03-23T09:25:36;9.70;99.90
1361;DHT22;674;45.552;-122.600;2024-03-23T09:28:02;9.70;99.90
1361;DHT22;674;45.552;-122.600;2024-03-23T09:30:29;9.60;99.90
1361;DHT22;674;45.552;-122.600;2024-03-23T09:32:55;9.60;99.90
1361;DHT22;674;45.552;-122.600;2024-03-23T09:35:22;9.60;99.90
1361;DHT22;674;45.552;-122.600;2024-03-23T09:37:49;9.60;99.90
1361;DHT22;674;45.552;-122.600;2024-03-23T09:40:15;9.50;99.90
1361;DHT22;674;45.552;-122.600;2024-03-23T09:42:42;9.50;99.90
1361;DHT22;674;45.552;-122.600;2024-03-23T09:45:21;9.40;99.90
1361;DHT22;674;45.552;-122.600;2024-03-23T09:47:48;9.50;99.90
1361;DHT22;674;45.552;-122.600;2024-03-23T09:50:16;9.50;99.90
1361;DHT22;674;45.552;-122.600;2024-03-23T09:52:43;9.70;99.90
1361;DHT22;674;45.552;-122.600;2024-03-23T09:55:11;9.40;99.90
1361;DHT22;674;45.552;-122.600;2024-03-23T09:57:38;9.40;99.90
1361;DHT22;674;45.552;-122.600;2024-03-23T10:00:06;9.60;99.90
1361;DHT22;674;45.552;-122.600;2024-03-23T10:02:34;9.60;99.90
1361;DHT22;674;45.552;-122.600;2024-03-23T10:05:01;9.40;99.90
1361;DHT22;674;45.552;-122.600;2024-03-23T10:07:28;9.70;99.90
1361;DHT22;674;45.552;-122.600;2024-03-23T10:09:55;9.40;99.90
1361;DHT22;674;45.552;-122.600;2024-03-23T10:12:22;9.40;99.90
1361;DHT22;674;45.552;-122.600;2024-03-23T10:14:49;9.60;99.90
1361;DHT22;674;45.552;-122.600;2024-03-23T10:19:46;9.30;99.90
1361;DHT22;674;45.552;-122.600;2024-03-23T10:22:13;9.30;99.90
1361;DHT22;674;45.552;-122.600;2024-03-23T10:24:41;9.70;99.90
1361;DHT22;674;45.552;-122.600;2024-03-23T10:27:08;9.60;99.90
1361;DHT22;674;45.552;-122.600;2024-03-23T10:29:35;9.20;99.90
1361;DHT22;674;45.552;-122.600;2024-03-23T10:32:08;9.20;99.90
1361;DHT22;674;45.552;-122.600;2024-03-23T10:34:35;9.20;99.90
1361;DHT22;674;45.552;-122.600;2024-03-23T10:37:02;9.20;99.90
1361;DHT22;674;45.552;-122.600;2024-03-23T10:39:33;9.20;99.90
1361;DHT22;674;45.552;-122.600;2024-03-23T10:42:03;9.10;99.90
1361;DHT22;674;45.552;-122.600;2024-03-23T10:44:30;9.10;99.90
1361;DHT22;674;45.552;-122.600;2024-03-23T10:47:01;9.20;99.90
1361;DHT22;674;45.552;-122.600;2024-03-23T10:49:34;9.00;99.90
1361;DHT22;674;45.552;-122.600;2024-03-23T10:54:27;8.70;99.90
1361;DHT22;674;45.552;-122.600;2024-03-23T10:59:40;8.50;99.90
1361;DHT22;674;45.552;-122.600;2024-03-23T11:02:07;8.60;99.90
1361;DHT22;674;45.552;-122.600;2024-03-23T11:04:45;8.20;99.90
1361;DHT22;674;45.552;-122.600;2024-03-23T11:09:50;8.00;99.90
1361;DHT22;674;45.552;-122.600;2024-03-23T11:14:56;8.00;99.90
1361;DHT22;674;45.552;-122.600;2024-03-23T11:17:23;8.00;99.90
1361;DHT22;674;45.552;-122.600;2024-03-23T11:19:54;8.00;99.90
1361;DHT22;674;45.552;-122.600;2024-03-23T11:27:40;7.80;99.90
1361;DHT22;674;45.552;-122.600;2024-03-23T11:30:13;7.80;99.90
1361;DHT22;674;45.552;-122.600;2024-03-23T11:32:44;7.60;99.90
1361;DHT22;674;45.552;-122.600;2024-03-23T11:35:32;7.60;99.90
1361;DHT22;674;45.552;-122.600;2024-03-23T11:38:04;7.20;99.90
1361;DHT22;674;45.552;-122.600;2024-03-23T11:40:32;7.40;99.90
1361;DHT22;674;45.552;-122.600;2024-03-23T11:42:59;7.30;99.90
1361;DHT22;674;45.552;-122.600;2024-03-23T11:45:27;7.30;99.90
1361;DHT22;674;45.552;-122.600;2024-03-23T11:50:30;7.00;99.90
1361;DHT22;674;45.552;-122.600;2024-03-23T11:53:16;7.00;99.90
1361;DHT22;674;45.552;-122.600;2024-03-23T11:55:47;7.00;99.90
1361;DHT22;674;45.552;-122.600;2024-03-23T11:58:15;7.00;99.90
1361;DHT22;674;45.552;-122.600;2024-03-23T12:00:42;7.00;99.90
1361;DHT22;674;45.552;-122.600;2024-03-23T12:03:08;6.90;99.90
1361;DHT22;674;45.552;-122.600;2024-03-23T12:05:36;6.90;99.90
1361;DHT22;674;45.552;-122.600;2024-03-23T12:08:20;6.90;99.90
1361;DHT22;674;45.552;-122.600;2024-03-23T12:10:53;6.70;99.90
1361;DHT22;674;45.552;-122.600;2024-03-23T12:13:30;7.10;99.90
1361;DHT22;674;45.552;-122.600;2024-03-23T12:16:09;6.70;99.90
1361;DHT22;674;45.552;-122.600;2024-03-23T12:18:36;6.70;99.90
1361;DHT22;674;45.552;-122.600;2024-03-23T12:21:04;6.60;99.90
1361;DHT22;674;45.552;-122.600;2024-03-23T12:23:30;6.60;99.90
1361;DHT22;674;45.552;-122.600;2024-03-23T12:25:57;6.60;99.90
1361;DHT22;674;45.552;-122.600;2024-03-23T12:28:24;6.60;99.90
1361;DHT22;674;45.552;-122.600;2024-03-23T12:30:51;6.80;99.90
1361;DHT22;674;45.552;-122.600;2024-03-23T12:33:18;6.80;99.90
1361;DHT22;674;45.552;-122.600;2024-03-23T12:35:45;6.90;99.90
1361;DHT22;674;45.552;-122.600;2024-03-23T12:38:12;7.00;99.90
1361;DHT22;674;45.552;-122.600;2024-03-23T12:40:38;7.10;99.90
1361;DHT22;674;45.552;-122.600;2024-03-23T12:43:05;7.20;99.90
1361;DHT22;674;45.552;-122.600;2024-03-23T12:45:31;7.20;99.90
1361;DHT22;674;45.552;-122.600;2024-03-23T12:47:58;7.10;99.90
1361;DHT22;674;45.552;-122.600;2024-03-23T12:50:25;7.00;99.90
1361;DHT22;674;45.552;-122.600;2024-03-23T12:52:51;7.20;99.90
1361;DHT22;674;45.552;-122.600;2024-03-23T12:55:18;7.20;99.90
1361;DHT22;674;45.552;-122.600;2024-03-23T12:57:44;7.20;99.90
1361;DHT22;674;45.552;-122.600;2024-03-23T13:00:11;7.10;99.90
1361;DHT22;674;45.552;-122.600;2024-03-23T13:02:38;7.10;99.90
1361;DHT22;674;45.552;-122.600;2024-03-23T13:05:05;6.90;99.90
1361;DHT22;674;45.552;-122.600;2024-03-23T13:07:34;7.00;99.90
1361;DHT22;674;45.552;-122.600;2024-03-23T13:10:01;7.00;99.90
1361;DHT22;674;45.552;-122.600;2024-03-23T13:12:28;7.00;99.90
1361;DHT22;674;45.552;-122.600;2024-03-23T13:14:54;7.00;99.90
1361;DHT22;674;45.552;-122.600;2024-03-23T13:17:21;7.00;99.90
1361;DHT22;674;45.552;-122.600;2024-03-23T13:19:48;6.80;99.90
1361;DHT22;674;45.552;-122.600;2024-03-23T13:22:14;6.90;99.90
1361;DHT22;674;45.552;-122.600;2024-03-23T13:24:41;6.90;99.90
1361;DHT22;674;45.552;-122.600;2024-03-23T13:27:07;6.90;99.90
1361;DHT22;674;45.552;-122.600;2024-03-23T13:29:35;6.90;99.90
1361;DHT22;674;45.552;-122.600;2024-03-23T13:32:02;6.90;99.90
1361;DHT22;674;45.552;-122.600;2024-03-23T13:34:28;6.90;99.90
1361;DHT22;674;45.552;-122.600;2024-03-23T13:36:55;7.00;99.90
1361;DHT22;674;45.552;-122.600;2024-03-23T13:39:25;7.00;99.90
1361;DHT22;674;45.552;-122.600;2024-03-23T13:41:53;7.30;99.90
1361;DHT22;674;45.552;-122.600;2024-03-23T13:44:24;7.10;99.90
1361;DHT22;674;45.552;-122.600;2024-03-23T13:46:51;7.10;99.90
1361;DHT22;674;45.552;-122.600;2024-03-23T13:51:47;7.20;99.90
1361;DHT22;674;45.552;-122.600;2024-03-23T13:54:14;7.10;99.90
1361;DHT22;674;45.552;-122.600;2024-03-23T13:56:40;7.00;99.90
1361;DHT22;674;45.552;-122.600;2024-03-23T13:59:07;6.90;99.90
1361;DHT22;674;45.552;-122.600;2024-03-23T14:01:33;6.90;99.90
1361;DHT22;674;45.552;-122.600;2024-03-23T14:04:00;6.80;99.90
1361;DHT22;674;45.552;-122.600;2024-03-23T14:06:27;6.60;99.90
1361;DHT22;674;45.552;-122.600;2024-03-23T14:08:53;6.90;99.90
1361;DHT22;674;45.552;-122.600;2024-03-23T14:11:20;6.70;99.90
1361;DHT22;674;45.552;-122.600;2024-03-23T14:13:47;6.70;99.90
1361;DHT22;674;45.552;-122.600;2024-03-23T14:16:13;6.50;99.90
1361;DHT22;674;45.552;-122.600;2024-03-23T14:18:40;6.60;99.90
1361;DHT22;674;45.552;-122.600;2024-03-23T14:21:06;6.60;99.90
1361;DHT22;674;45.552;-122.600;2024-03-23T14:23:33;6.50;99.90
1361;DHT22;674;45.552;-122.600;2024-03-23T14:26:00;6.30;99.90
1361;DHT22;674;45.552;-122.600;2024-03-23T14:28:27;6.20;99.90
1361;DHT22;674;45.552;-122.600;2024-03-23T14:30:55;6.30;99.90
1361;DHT22;674;45.552;-122.600;2024-03-23T14:33:21;6.50;99.90
1361;DHT22;674;45.552;-122.600;2024-03-23T14:35:51;6.40;99.90
1361;DHT22;674;45.552;-122.600;2024-03-23T14:38:19;6.50;99.90
1361;DHT22;674;45.552;-122.600;2024-03-23T14:40:46;6.50;99.90
1361;DHT22;674;45.552;-122.600;2024-03-23T14:43:12;6.50;99.90
1361;DHT22;674;45.552;-122.600;2024-03-23T14:45:49;6.60;99.90
1361;DHT22;674;45.552;-122.600;2024-03-23T14:48:28;6.30;99.90
1361;DHT22;674;45.552;-122.600;2024-03-23T14:50:58;6.30;99.90
1361;DHT22;674;45.552;-122.600;2024-03-23T14:53:37;6.30;99.90
1361;DHT22;674;45.552;-122.600;2024-03-23T14:56:06;6.30;99.90
1361;DHT22;674;45.552;-122.600;2024-03-23T14:58:33;6.30;99.90
1361;DHT22;674;45.552;-122.600;2024-03-23T15:01:03;6.50;99.90
1361;DHT22;674;45.552;-122.600;2024-03-23T15:03:30;6.50;99.90
1361;DHT22;674;45.552;-122.600;2024-03-23T15:05:58;6.70;99.90
1361;DHT22;674;45.552;-122.600;2024-03-23T15:08:26;6.70;99.90
1361;DHT22;674;45.552;-122.600;2024-03-23T15:10:54;6.40;99.90
1361;DHT22;674;45.552;-122.600;2024-03-23T15:13:20;6.50;99.90
1361;DHT22;674;45.552;-122.600;2024-03-23T15:15:49;6.50;99.90
1361;DHT22;674;45.552;-122.600;2024-03-23T15:18:15;6.80;99.90
1361;DHT22;674;45.552;-122.600;2024-03-23T15:20:52;6.90;99.90
1361;DHT22;674;45.552;-122.600;2024-03-23T15:23:19;6.90;99.90
1361;DHT22;674;45.552;-122.600;2024-03-23T15:25:46;6.80;99.90
1361;DHT22;674;45.552;-122.600;2024-03-23T15:28:12;6.90;99.90
1361;DHT22;674;45.552;-122.600;2024-03-23T15:30:39;6.90;99.90
1361;DHT22;674;45.552;-122.600;2024-03-23T15:33:06;6.80;99.90
1361;DHT22;674;45.552;-122.600;2024-03-23T15:35:33;6.90;99.90
1361;DHT22;674;45.552;-122.600;2024-03-23T15:37:59;6.90;99.90
1361;DHT22;674;45.552;-122.600;2024-03-23T15:40:26;7.10;99.90
1361;DHT22;674;45.552;-122.600;2024-03-23T15:42:53;7.20;99.90
1361;DHT22;674;45.552;-122.600;2024-03-23T15:45:20;7.20;99.90
1361;DHT22;674;45.552;-122.600;2024-03-23T15:47:46;7.50;99.90
1361;DHT22;674;45.552;-122.600;2024-03-23T15:50:13;7.60;99.90
1361;DHT22;674;45.552;-122.600;2024-03-23T15:52:39;7.60;99.90
1361;DHT22;674;45.552;-122.600;2024-03-23T15:55:06;7.80;99.90
1361;DHT22;674;45.552;-122.600;2024-03-23T15:57:34;7.90;99.90
1361;DHT22;674;45.552;-122.600;2024-03-23T16:00:01;8.00;99.90
1361;DHT22;674;45.552;-122.600;2024-03-23T16:02:28;8.20;99.90
1361;DHT22;674;45.552;-122.600;2024-03-23T16:04:54;8.40;99.90
1361;DHT22;674;45.552;-122.600;2024-03-23T16:07:22;8.60;99.90
1361;DHT22;674;45.552;-122.600;2024-03-23T16:09:49;8.60;99.90
1361;DHT22;674;45.552;-122.600;2024-03-23T16:12:16;8.70;99.90
1361;DHT22;674;45.552;-122.600;2024-03-23T16:14:43;8.80;99.90
1361;DHT22;674;45.552;-122.600;2024-03-23T16:17:09;9.00;99.90
1361;DHT22;674;45.552;-122.600;2024-03-23T16:19:36;9.20;99.90
1361;DHT22;674;45.552;-122.600;2024-03-23T16:22:03;9.30;99.90
1361;DHT22;674;45.552;-122.600;2024-03-23T16:24:29;9.30;99.90
1361;DHT22;674;45.552;-122.600;2024-03-23T16:26:56;9.50;99.90
1361;DHT22;674;45.552;-122.600;2024-03-23T16:29:22;9.50;99.90
1361;DHT22;674;45.552;-122.600;2024-03-23T16:31:49;9.60;99.90
1361;DHT22;674;45.552;-122.600;2024-03-23T16:34:17;9.60;99.90
1361;DHT22;674;45.552;-122.600;2024-03-23T16:36:43;9.70;99.90
1361;DHT22;674;45.552;-122.600;2024-03-23T16:39:10;9.90;99.90
1361;DHT22;674;45.552;-122.600;2024-03-23T16:41:37;10.00;99.90
1361;DHT22;674;45.552;-122.600;2024-03-23T16:44:04;10.10;99.90
1361;DHT22;674;45.552;-122.600;2024-03-23T16:46:30;10.10;99.90
1361;DHT22;674;45.552;-122.600;2024-03-23T16:48:57;10.20;99.90
1361;DHT22;674;45.552;-122.600;2024-03-23T16:51:23;10.40;99.90
1361;DHT22;674;45.552;-122.600;2024-03-23T16:53:50;10.50;99.90
1361;DHT22;674;45.552;-122.600;2024-03-23T16:56:17;10.60;99.90
1361;DHT22;674;45.552;-122.600;2024-03-23T16:58:43;10.50;99.90
1361;DHT22;674;45.552;-122.600;2024-03-23T17:01:12;10.50;99.90
1361;DHT22;674;45.552;-122.600;2024-03-23T17:03:47;10.50;90.80
1361;DHT22;674;45.552;-122.600;2024-03-23T17:06:14;10.50;88.20